Time;durP1;ratioP1;P1;durP2;ratioP2;P2;SDS_P1;SDS_P2;PMS_P1;PMS_P2;Temp;Humidity;BMP_temperature;BMP_pressure;BME280_temperature;BME280_humidity;BME280_pressure;Samples;Min_cycle;Max_cycle;Signal;HPM_P1;HPM_P2
2022/11/18 00:01:50;;;;;;;1.53;1.43;;;9.70;99.90;;;;;;5016959;28;20435;-60
2022/11/18 00:04:17;;;;;;;1.50;1.20;;;9.70;99.90;;;;;;5017065;28;20529;-60
2022/11/18 00:06:44;;;;;;;1.50;1.40;;;9.40;99.90;;;;;;5016884;28;20517;-60
2022/11/18 00:09:12;;;;;;;1.40;1.30;;;9.50;99.90;;;;;;5015900;28;20474;-60
2022/11/18 00:14:26;;;;;;;2.23;1.30;;;9.50;99.90;;;;;;5017144;28;20462;-60
2022/11/18 00:16:55;;;;;;;2.00;1.50;;;9.40;99.90;;;;;;5016754;28;20451;-60
2022/11/18 00:19:23;;;;;;;2.33;1.50;;;9.40;99.90;;;;;;5016935;28;20516;-60
2022/11/18 00:21:51;;;;;;;1.50;1.40;;;9.30;99.90;;;;;;5016655;28;20457;-60
2022/11/18 00:24:19;;;;;;;1.53;1.43;;;9.40;99.90;;;;;;5016571;28;20976;-60
2022/11/18 00:26:46;;;;;;;1.70;1.30;;;9.40;99.90;;;;;;5016443;28;20977;-60
2022/11/18 00:29:14;;;;;;;1.50;1.40;;;9.40;99.90;;;;;;5016439;28;20513;-60
2022/11/18 00:31:43;;;;;;;1.50;1.40;;;9.40;99.90;;;;;;5016400;28;20447;-60
2022/11/18 00:34:12;;;;;;;1.33;1.23;;;9.40;99.90;;;;;;5016526;28;20509;-60
2022/11/18 00:36:40;;;;;;;1.50;1.40;;;9.50;99.90;;;;;;5016290;28;20966;-60
2022/11/18 00:39:07;;;;;;;1.50;1.23;;;9.40;99.90;;;;;;5016327;28;20483;-60
2022/11/18 00:44:19;;;;;;;1.67;1.20;;;9.40;99.90;;;;;;5015384;28;20779;-62
2022/11/18 00:46:48;;;;;;;1.43;1.33;;;9.40;99.90;;;;;;5016107;28;20499;-60
2022/11/18 00:49:15;;;;;;;1.37;1.27;;;9.40;99.90;;;;;;5016450;28;20471;-60
2022/11/18 00:51:42;;;;;;;1.30;1.20;;;9.40;99.90;;;;;;5016107;28;21000;-60
2022/11/18 00:54:10;;;;;;;1.93;1.50;;;9.40;99.90;;;;;;5015976;28;20490;-60
2022/11/18 00:56:37;;;;;;;2.07;1.20;;;9.40;99.90;;;;;;5015931;28;20503;-60
2022/11/18 00:59:04;;;;;;;1.50;1.40;;;9.40;99.90;;;;;;5015969;28;20480;-60
2022/11/18 01:01:31;;;;;;;1.33;1.23;;;9.50;99.90;;;;;;5015923;28;20447;-61
2022/11/18 01:04:00;;;;;;;6.03;1.53;;;9.40;99.90;;;;;;5016107;28;20509;-60
2022/11/18 01:06:27;;;;;;;1.40;1.30;;;9.40;99.90;;;;;;5016114;28;20799;-60
2022/11/18 01:08:55;;;;;;;2.80;1.40;;;9.40;99.90;;;;;;5015587;28;20529;-60
2022/11/18 01:14:09;;;;;;;1.77;1.30;;;9.40;99.90;;;;;;5015930;28;20460;-60
2022/11/18 01:16:36;;;;;;;1.67;1.43;;;9.40;99.90;;;;;;5015901;28;20551;-60
2022/11/18 01:19:05;;;;;;;1.30;1.20;;;9.50;99.90;;;;;;5015546;28;20490;-60
2022/11/18 01:21:32;;;;;;;1.63;1.53;;;9.40;99.90;;;;;;5015938;28;20478;-60
2022/11/18 01:23:59;;;;;;;3.00;1.40;;;9.30;99.90;;;;;;5015488;28;20541;-60
2022/11/18 01:26:27;;;;;;;2.20;1.90;;;9.30;99.90;;;;;;5015335;28;20553;-60
2022/11/18 01:28:57;;;;;;;1.50;1.40;;;9.40;99.90;;;;;;5015721;28;20869;-60
2022/11/18 01:31:24;;;;;;;2.23;1.50;;;9.40;99.90;;;;;;5015511;28;20451;-60
2022/11/18 01:33:52;;;;;;;1.67;1.47;;;9.30;99.90;;;;;;5015582;28;20487;-60
2022/11/18 01:36:23;;;;;;;1.77;1.67;;;9.30;99.90;;;;;;5015342;28;20493;-61
2022/11/18 01:38:51;;;;;;;1.37;1.23;;;9.40;99.90;;;;;;5015469;28;20481;-60
2022/11/18 01:41:20;;;;;;;2.33;1.23;;;9.30;99.90;;;;;;5015255;28;20977;-60
2022/11/18 01:43:54;;;;;;;2.40;1.60;;;9.30;99.90;;;;;;5015641;28;20525;-60
2022/11/18 01:46:23;;;;;;;1.87;1.47;;;9.30;99.90;;;;;;5015015;28;20526;-60
2022/11/18 01:48:54;;;;;;;1.70;1.43;;;9.30;99.90;;;;;;5015334;28;20524;-60
2022/11/18 01:51:29;;;;;;;1.50;1.40;;;9.40;99.90;;;;;;5015039;28;20424;-61
2022/11/18 01:53:59;;;;;;;2.73;1.60;;;9.30;99.90;;;;;;5014890;28;20897;-60
2022/11/18 01:56:35;;;;;;;2.47;1.43;;;9.40;99.90;;;;;;5014824;28;20989;-61
2022/11/18 01:59:06;;;;;;;1.50;1.40;;;9.40;99.90;;;;;;5014874;28;20431;-62
2022/11/18 02:01:33;;;;;;;2.17;1.53;;;9.40;99.90;;;;;;5015712;28;20531;-61
2022/11/18 02:04:05;;;;;;;2.53;1.40;;;9.50;99.90;;;;;;5014773;28;20948;-61
2022/11/18 02:06:34;;;;;;;1.40;1.30;;;9.50;99.90;;;;;;5014695;28;20957;-61
2022/11/18 02:09:01;;;;;;;1.40;1.20;;;9.50;99.90;;;;;;5014598;28;20573;-61
2022/11/18 02:14:14;;;;;;;2.30;1.30;;;9.50;99.90;;;;;;5015012;28;20405;-61
2022/11/18 02:16:56;;;;;;;1.83;1.60;;;9.40;99.90;;;;;;5014405;28;20917;-61
2022/11/18 02:19:41;;;;;;;2.37;1.37;;;9.50;99.90;;;;;;5014849;28;20424;-61
2022/11/18 02:22:23;;;;;;;1.63;1.20;;;9.50;99.90;;;;;;5014790;28;20455;-62
2022/11/18 02:25:00;;;;;;;1.50;1.40;;;9.50;99.90;;;;;;5014372;28;20468;-61
2022/11/18 02:28:04;;;;;;;1.53;1.40;;;9.50;99.90;;;;;;5014348;28;20431;-61
2022/11/18 02:30:35;;;;;;;1.30;1.20;;;9.50;99.90;;;;;;5014244;28;20486;-61
2022/11/18 02:33:07;;;;;;;2.90;1.10;;;9.50;99.90;;;;;;5014245;28;20443;-60
2022/11/18 02:35:41;;;;;;;1.20;1.10;;;9.50;99.90;;;;;;5014445;28;20493;-61
2022/11/18 02:38:11;;;;;;;1.37;1.27;;;9.50;99.90;;;;;;5014541;28;20436;-61
2022/11/18 02:40:43;;;;;;;2.30;1.33;;;9.40;99.90;;;;;;5014710;28;20446;-61
2022/11/18 02:43:15;;;;;;;4.50;1.50;;;9.50;99.90;;;;;;5014139;28;20926;-62
2022/11/18 02:45:49;;;;;;;1.17;1.07;;;9.50;99.90;;;;;;5014054;28;20502;-61
2022/11/18 02:48:19;;;;;;;1.50;1.40;;;9.50;99.90;;;;;;5014096;28;20973;-61
2022/11/18 02:50:50;;;;;;;2.90;1.60;;;9.50;99.90;;;;;;5013971;28;20451;-61
2022/11/18 02:53:20;;;;;;;1.70;1.60;;;9.50;99.90;;;;;;5013996;28;20522;-61
2022/11/18 02:55:49;;;;;;;1.60;1.50;;;9.40;99.90;;;;;;5013815;28;20527;-61
2022/11/18 02:58:20;;;;;;;4.83;1.30;;;9.30;99.90;;;;;;5014289;28;20451;-61
2022/11/18 03:00:55;;;;;;;1.40;1.30;;;9.30;99.90;;;;;;5014208;28;20993;-62
2022/11/18 03:03:26;;;;;;;1.97;1.30;;;9.40;99.90;;;;;;5013858;28;20474;-61
2022/11/18 03:06:02;;;;;;;1.40;1.20;;;9.30;99.90;;;;;;5013725;28;20521;-61
2022/11/18 03:08:36;;;;;;;1.70;1.33;;;9.30;99.90;;;;;;5013604;28;20513;-61
2022/11/18 03:11:11;;;;;;;2.40;1.30;;;9.20;99.90;;;;;;5014089;28;20427;-60
2022/11/18 03:13:45;;;;;;;1.67;1.40;;;9.20;99.90;;;;;;5014095;28;20846;-60
2022/11/18 03:16:21;;;;;;;1.60;1.27;;;9.30;99.90;;;;;;5013574;28;20575;-61
2022/11/18 03:18:57;;;;;;;1.33;1.23;;;9.20;99.90;;;;;;5014048;28;20457;-61
2022/11/18 03:21:35;;;;;;;1.43;1.30;;;9.10;99.90;;;;;;5013749;28;20450;-60
2022/11/18 03:24:09;;;;;;;2.40;1.37;;;9.10;99.90;;;;;;5013988;28;20489;-60
2022/11/18 03:26:39;;;;;;;1.70;1.23;;;9.10;99.90;;;;;;5013901;28;20467;-60
2022/11/18 03:29:10;;;;;;;1.57;1.40;;;9.10;99.90;;;;;;5013670;28;20435;-60
2022/11/18 03:31:43;;;;;;;1.30;1.20;;;9.10;99.90;;;;;;5013656;28;20428;-60
2022/11/18 03:34:16;;;;;;;1.47;1.33;;;9.20;99.90;;;;;;5013619;28;20487;-60
2022/11/18 03:36:48;;;;;;;1.70;1.60;;;9.10;99.90;;;;;;5013443;28;20574;-60
2022/11/18 03:39:17;;;;;;;1.43;1.30;;;9.10;99.90;;;;;;5013558;28;20474;-60
2022/11/18 03:41:50;;;;;;;1.77;1.20;;;9.10;99.90;;;;;;5013442;28;20962;-60
2022/11/18 03:44:23;;;;;;;2.57;1.40;;;9.10;99.90;;;;;;5013820;28;20435;-60
2022/11/18 03:46:56;;;;;;;3.53;1.67;;;9.20;99.90;;;;;;5014299;28;20474;-60
2022/11/18 03:49:29;;;;;;;1.63;1.53;;;9.10;99.90;;;;;;5013432;28;20474;-62
2022/11/18 03:52:02;;;;;;;1.23;1.10;;;9.10;99.90;;;;;;5013406;28;20431;-60
2022/11/18 03:54:33;;;;;;;4.80;1.60;;;9.00;99.90;;;;;;5013369;28;20926;-62
2022/11/18 03:57:05;;;;;;;1.30;1.20;;;9.00;99.90;;;;;;5013637;28;20510;-62
2022/11/18 03:59:35;;;;;;;2.20;1.27;;;8.90;99.90;;;;;;5014297;28;20443;-60
2022/11/18 04:02:09;;;;;;;1.67;1.40;;;8.90;99.90;;;;;;5013628;28;20455;-60
2022/11/18 04:04:37;;;;;;;1.60;1.50;;;8.80;99.90;;;;;;5013356;28;20459;-60
2022/11/18 04:07:09;;;;;;;2.23;1.33;;;8.90;99.90;;;;;;5013510;28;20447;-60
2022/11/18 04:09:42;;;;;;;2.80;1.40;;;8.90;99.90;;;;;;5013117;28;20483;-60
2022/11/18 04:12:13;;;;;;;2.13;1.30;;;8.90;99.90;;;;;;5013214;28;20470;-60
2022/11/18 04:14:42;;;;;;;2.03;1.40;;;8.80;99.90;;;;;;5013115;28;20483;-60
2022/11/18 04:17:14;;;;;;;2.60;1.30;;;8.80;99.90;;;;;;5013993;28;20514;-61
2022/11/18 04:19:41;;;;;;;1.30;1.20;;;8.70;99.90;;;;;;5016748;28;20474;-61
2022/11/18 04:22:10;;;;;;;1.50;1.40;;;8.60;99.90;;;;;;5016690;28;20505;-61
2022/11/18 04:24:37;;;;;;;3.83;1.30;;;8.70;99.90;;;;;;5016849;28;20451;-61
2022/11/18 04:27:05;;;;;;;1.43;1.33;;;8.70;99.90;;;;;;5016603;28;20483;-60
2022/11/18 04:29:34;;;;;;;1.33;1.23;;;8.70;99.90;;;;;;5016818;28;20521;-60
2022/11/18 04:32:01;;;;;;;1.50;1.33;;;8.70;99.90;;;;;;5016460;28;20447;-60
2022/11/18 04:34:30;;;;;;;1.30;1.20;;;8.80;99.90;;;;;;5016480;28;20996;-60
2022/11/18 04:36:58;;;;;;;1.63;1.53;;;8.80;99.90;;;;;;5016625;28;20579;-60
2022/11/18 04:39:26;;;;;;;1.43;1.00;;;8.80;99.90;;;;;;5016642;28;20490;-61
2022/11/18 04:41:56;;;;;;;1.30;1.20;;;8.80;99.90;;;;;;5016289;28;20451;-60
2022/11/18 04:44:24;;;;;;;1.20;1.10;;;8.90;99.90;;;;;;5016990;28;20486;-60
2022/11/18 04:46:51;;;;;;;2.13;1.27;;;8.80;99.90;;;;;;5016148;28;20980;-60
2022/11/18 04:49:18;;;;;;;1.13;1.03;;;8.90;99.90;;;;;;5016157;28;20483;-61
2022/11/18 04:51:47;;;;;;;1.20;1.10;;;8.70;99.90;;;;;;5016106;28;20451;-61
2022/11/18 04:54:16;;;;;;;1.97;1.23;;;8.70;99.90;;;;;;5016106;28;20501;-60
2022/11/18 04:56:44;;;;;;;1.60;1.20;;;8.70;99.90;;;;;;5016139;28;20560;-61
2022/11/18 04:59:12;;;;;;;1.47;1.37;;;8.70;99.90;;;;;;5015975;28;20494;-60
2022/11/18 05:01:39;;;;;;;1.33;1.20;;;8.60;99.90;;;;;;5016074;28;20443;-60
2022/11/18 05:04:07;;;;;;;2.27;1.30;;;8.70;99.90;;;;;;5016187;28;20479;-60
2022/11/18 05:06:35;;;;;;;2.30;1.10;;;8.70;99.90;;;;;;5016134;28;20897;-60
2022/11/18 05:09:04;;;;;;;1.40;1.30;;;8.70;99.90;;;;;;5015902;28;20557;-60
2022/11/18 05:14:17;;;;;;;1.53;1.20;;;8.70;99.90;;;;;;5016125;28;20558;-61
2022/11/18 05:16:44;;;;;;;1.97;1.20;;;8.70;99.90;;;;;;5015796;28;20545;-60
2022/11/18 05:19:12;;;;;;;1.20;1.10;;;8.60;99.90;;;;;;5015909;28;20501;-60
2022/11/18 05:21:39;;;;;;;1.33;1.23;;;8.80;99.90;;;;;;5015617;28;20447;-61
2022/11/18 05:24:08;;;;;;;1.20;1.10;;;8.80;99.90;;;;;;5015504;28;20483;-61
2022/11/18 05:26:35;;;;;;;1.73;1.13;;;8.70;99.90;;;;;;5015481;28;20458;-60
2022/11/18 05:29:03;;;;;;;1.37;1.27;;;8.70;99.90;;;;;;5014894;28;20984;-60
2022/11/18 05:31:31;;;;;;;1.30;1.10;;;8.70;99.90;;;;;;5015649;28;20453;-60
2022/11/18 05:33:59;;;;;;;1.10;1.00;;;8.70;99.90;;;;;;5015408;28;20443;-61
2022/11/18 05:36:26;;;;;;;1.40;1.30;;;8.70;99.90;;;;;;5015777;28;20566;-60
2022/11/18 05:38:53;;;;;;;1.30;1.20;;;8.60;99.90;;;;;;5015188;28;20478;-60
2022/11/18 05:44:07;;;;;;;1.30;1.20;;;8.70;99.90;;;;;;5015477;28;20406;-60
2022/11/18 05:46:34;;;;;;;1.50;1.40;;;8.70;99.90;;;;;;5015082;28;20969;-60
2022/11/18 05:49:01;;;;;;;2.77;1.20;;;8.70;99.90;;;;;;5014947;28;20451;-60
2022/11/18 05:51:29;;;;;;;1.60;1.50;;;8.60;99.90;;;;;;5014819;28;20517;-60
2022/11/18 05:53:57;;;;;;;3.63;1.27;;;8.60;99.90;;;;;;5014848;28;20451;-60
2022/11/18 05:56:28;;;;;;;2.77;1.40;;;8.60;99.90;;;;;;5014746;28;20523;-61
2022/11/18 05:58:56;;;;;;;1.43;1.33;;;8.60;99.90;;;;;;5015202;28;20772;-61
2022/11/18 06:01:27;;;;;;;1.50;1.40;;;8.60;99.90;;;;;;5015159;28;20479;-59
2022/11/18 06:03:55;;;;;;;6.50;1.60;;;8.60;99.90;;;;;;5014953;28;20439;-59
2022/11/18 06:06:23;;;;;;;2.57;1.50;;;8.60;99.90;;;;;;5014646;28;21059;-59
2022/11/18 06:08:54;;;;;;;1.60;1.50;;;8.60;99.90;;;;;;5014423;28;20981;-59
2022/11/18 06:11:21;;;;;;;1.73;1.30;;;8.60;99.90;;;;;;5014611;28;20521;-59
2022/11/18 06:13:56;;;;;;;2.13;1.60;;;8.60;99.90;;;;;;5014292;28;20451;-61
2022/11/18 06:16:28;;;;;;;4.60;1.40;;;8.60;99.90;;;;;;5014739;28;20581;-59
2022/11/18 06:18:55;;;;;;;1.60;1.50;;;8.50;99.90;;;;;;5014441;28;20455;-59
2022/11/18 06:21:23;;;;;;;2.00;1.40;;;8.50;99.90;;;;;;5014329;28;20447;-59
2022/11/18 06:23:51;;;;;;;1.73;1.40;;;8.40;99.90;;;;;;5013927;28;20509;-59
2022/11/18 06:26:18;;;;;;;2.33;2.00;;;8.40;99.90;;;;;;5014053;28;20467;-63
2022/11/18 06:28:47;;;;;;;1.60;1.50;;;8.50;99.90;;;;;;5014481;28;20811;-59
2022/11/18 06:31:16;;;;;;;1.43;1.33;;;8.50;99.90;;;;;;5014129;28;20930;-59
2022/11/18 06:33:44;;;;;;;3.00;1.30;;;8.50;99.90;;;;;;5014331;28;20530;-59
2022/11/18 06:36:11;;;;;;;2.40;1.63;;;8.50;99.90;;;;;;5013851;28;20513;-59
2022/11/18 06:38:38;;;;;;;1.77;1.63;;;8.40;99.90;;;;;;5014134;28;20455;-59
2022/11/18 06:41:06;;;;;;;2.17;1.60;;;8.40;99.90;;;;;;5013161;28;20524;-59
2022/11/18 06:43:40;;;;;;;3.67;1.83;;;8.60;99.90;;;;;;5014039;28;20451;-62
2022/11/18 06:48:56;;;;;;;1.40;1.30;;;8.60;99.90;;;;;;5014276;28;20407;-59
2022/11/18 06:51:23;;;;;;;2.37;1.73;;;8.60;99.90;;;;;;5013859;28;20455;-59
2022/11/18 06:53:51;;;;;;;2.60;2.33;;;8.60;99.90;;;;;;5013629;28;20907;-60
2022/11/18 06:56:20;;;;;;;2.40;1.97;;;8.60;99.90;;;;;;5013463;28;20906;-59
2022/11/18 06:58:47;;;;;;;2.13;1.93;;;8.50;99.90;;;;;;5013979;28;20546;-59
2022/11/18 07:01:16;;;;;;;3.03;2.10;;;8.60;99.90;;;;;;5013872;28;20483;-59
2022/11/18 07:03:46;;;;;;;1.57;1.30;;;8.60;99.90;;;;;;5013790;28;20515;-59
2022/11/18 07:06:18;;;;;;;1.60;1.50;;;8.60;99.90;;;;;;5013997;28;20494;-60
2022/11/18 07:08:45;;;;;;;1.80;1.50;;;8.50;99.90;;;;;;5013534;28;21001;-59
2022/11/18 07:11:14;;;;;;;2.57;1.70;;;8.60;99.90;;;;;;5014456;28;20861;-59
2022/11/18 07:13:42;;;;;;;3.20;1.50;;;8.60;99.90;;;;;;5013623;28;20535;-59
2022/11/18 07:16:11;;;;;;;1.53;1.43;;;8.60;99.90;;;;;;5013714;28;20502;-59
2022/11/18 07:18:40;;;;;;;2.03;1.60;;;8.60;99.90;;;;;;5013513;28;20482;-59
2022/11/18 07:21:09;;;;;;;3.20;1.70;;;8.60;99.90;;;;;;5013557;28;20455;-59
2022/11/18 07:23:38;;;;;;;2.30;1.70;;;8.70;99.90;;;;;;5013911;28;20501;-60
2022/11/18 07:26:06;;;;;;;1.40;1.30;;;8.60;99.90;;;;;;5013270;28;20506;-60
2022/11/18 07:28:34;;;;;;;3.67;1.50;;;8.70;99.90;;;;;;5013467;28;20543;-60
2022/11/18 07:31:03;;;;;;;3.57;1.37;;;8.60;99.90;;;;;;5013670;28;20462;-59
2022/11/18 07:33:30;;;;;;;3.87;1.53;;;8.60;99.90;;;;;;5013226;28;20458;-59
2022/11/18 07:36:01;;;;;;;1.40;1.30;;;8.60;99.90;;;;;;5013701;28;20930;-60
2022/11/18 07:38:29;;;;;;;1.83;1.53;;;8.50;99.90;;;;;;5013522;28;20423;-59
2022/11/18 07:41:04;;;;;;;1.37;1.27;;;8.50;99.90;;;;;;5013492;28;20478;-59
2022/11/18 07:43:32;;;;;;;1.77;1.43;;;8.50;99.90;;;;;;5013496;28;20738;-59
2022/11/18 07:46:08;;;;;;;1.60;1.43;;;8.50;99.90;;;;;;5013437;28;20459;-59
2022/11/18 07:48:35;;;;;;;1.87;1.53;;;8.50;99.90;;;;;;5013308;28;20467;-59
2022/11/18 07:51:02;;;;;;;1.63;1.53;;;8.70;99.90;;;;;;5013047;28;20447;-59
2022/11/18 07:53:30;;;;;;;3.00;1.60;;;8.70;99.90;;;;;;5016041;28;20493;-59
2022/11/18 07:56:00;;;;;;;1.60;1.50;;;8.70;99.90;;;;;;5017129;28;20824;-59
2022/11/18 07:58:27;;;;;;;3.30;1.80;;;8.80;99.90;;;;;;5016817;28;20561;-59
2022/11/18 08:00:55;;;;;;;1.70;1.43;;;9.00;99.90;;;;;;5017135;28;20946;-59
2022/11/18 08:03:25;;;;;;;1.80;1.60;;;8.90;99.90;;;;;;5016919;28;20505;-59
2022/11/18 08:05:53;;;;;;;1.20;1.10;;;8.90;99.90;;;;;;5017185;28;20856;-59
2022/11/18 08:08:20;;;;;;;1.30;1.20;;;8.80;99.90;;;;;;5016565;28;20554;-59
2022/11/18 08:10:47;;;;;;;1.53;1.30;;;8.80;99.90;;;;;;5016733;28;20774;-59
2022/11/18 08:13:16;;;;;;;2.70;2.00;;;8.90;99.90;;;;;;5016830;28;20809;-59
2022/11/18 08:15:44;;;;;;;2.50;1.90;;;8.80;99.90;;;;;;5016613;28;20981;-60
2022/11/18 08:18:11;;;;;;;2.23;2.03;;;8.70;99.90;;;;;;5016368;28;20487;-59
2022/11/18 08:20:38;;;;;;;2.40;1.70;;;8.70;99.90;;;;;;5016757;28;20474;-59
2022/11/18 08:23:05;;;;;;;2.23;1.47;;;8.80;99.90;;;;;;5016575;28;20992;-59
2022/11/18 08:25:33;;;;;;;1.30;1.20;;;8.80;99.90;;;;;;5016462;28;20474;-61
2022/11/18 08:28:00;;;;;;;2.13;1.47;;;8.90;99.90;;;;;;5016778;28;20779;-58
2022/11/18 08:30:29;;;;;;;1.70;1.17;;;8.80;99.90;;;;;;5016415;28;20941;-60
2022/11/18 08:32:56;;;;;;;1.50;1.40;;;8.60;99.90;;;;;;5016670;28;20500;-60
2022/11/18 08:35:24;;;;;;;1.30;1.20;;;8.70;99.90;;;;;;5016834;28;20479;-60
2022/11/18 08:37:51;;;;;;;1.60;1.13;;;8.70;99.90;;;;;;5016496;28;20506;-61
2022/11/18 08:40:18;;;;;;;1.20;1.10;;;8.80;99.90;;;;;;5016239;28;20502;-60
2022/11/18 08:42:46;;;;;;;1.30;1.20;;;8.80;99.90;;;;;;5016114;28;20451;-60
2022/11/18 08:45:13;;;;;;;1.43;1.33;;;8.90;99.90;;;;;;5016228;28;20505;-60
2022/11/18 08:47:42;;;;;;;1.57;1.33;;;8.90;99.90;;;;;;5016262;28;20818;-60
2022/11/18 08:50:11;;;;;;;2.23;1.30;;;8.90;99.90;;;;;;5015970;28;20447;-60
2022/11/18 08:52:38;;;;;;;2.07;1.43;;;8.90;99.90;;;;;;5015966;28;20482;-60
2022/11/18 08:55:06;;;;;;;1.40;1.30;;;9.00;99.90;;;;;;5015836;28;20554;-60
2022/11/18 08:57:33;;;;;;;2.03;1.27;;;9.00;99.90;;;;;;5015820;28;20573;-60
2022/11/18 09:00:00;;;;;;;1.20;1.10;;;9.10;99.90;;;;;;5016601;28;20486;-60
2022/11/18 09:02:28;;;;;;;1.27;1.17;;;9.00;99.90;;;;;;5015752;28;20497;-60
2022/11/18 09:04:56;;;;;;;1.40;1.30;;;9.00;99.90;;;;;;5014931;28;20870;-60
2022/11/18 09:07:24;;;;;;;1.27;1.17;;;9.10;99.90;;;;;;5016020;28;20559;-59
2022/11/18 09:09:51;;;;;;;2.07;1.87;;;9.10;99.90;;;;;;5015535;28;20536;-59
2022/11/18 09:12:18;;;;;;;4.30;1.50;;;9.10;99.90;;;;;;5015701;28;20455;-60
2022/11/18 09:14:46;;;;;;;2.10;1.20;;;9.20;99.90;;;;;;5015606;28;20502;-60
2022/11/18 09:17:14;;;;;;;1.40;1.30;;;9.20;99.90;;;;;;5015851;28;20515;-59
2022/11/18 09:19:41;;;;;;;1.40;1.30;;;9.30;99.90;;;;;;5015710;28;20447;-60
2022/11/18 09:22:10;;;;;;;1.93;1.37;;;9.40;99.90;;;;;;5015495;28;20969;-60
2022/11/18 09:24:38;;;;;;;1.73;1.50;;;9.30;99.90;;;;;;5015670;28;20454;-60
2022/11/18 09:27:07;;;;;;;1.90;1.40;;;9.30;99.90;;;;;;5015433;28;20457;-60
2022/11/18 09:29:34;;;;;;;1.30;1.20;;;9.30;99.90;;;;;;5014232;28;20569;-60
2022/11/18 09:32:02;;;;;;;7.20;4.40;;;9.20;99.90;;;;;;5014187;28;20538;-60
2022/11/18 09:34:30;;;;;;;1.33;1.23;;;9.20;99.90;;;;;;5015167;28;20509;-59
2022/11/18 09:36:57;;;;;;;1.20;1.10;;;9.20;99.90;;;;;;5015066;28;20489;-60
2022/11/18 09:39:26;;;;;;;1.40;1.30;;;9.20;99.90;;;;;;5014486;28;20451;-59
2022/11/18 09:42:02;;;;;;;1.30;1.20;;;9.20;99.90;;;;;;5014819;28;20501;-60
2022/11/18 09:44:47;;;;;;;1.60;1.50;;;9.20;99.90;;;;;;5015049;28;20474;-59
2022/11/18 09:47:24;;;;;;;1.30;1.20;;;9.20;99.90;;;;;;5015031;28;20972;-60
2022/11/18 09:49:54;;;;;;;2.17;1.20;;;9.20;99.90;;;;;;5015196;28;20790;-60
2022/11/18 09:52:26;;;;;;;1.50;1.40;;;9.10;99.90;;;;;;5015263;28;20543;-60
2022/11/18 09:54:56;;;;;;;2.43;1.60;;;9.30;99.90;;;;;;5014993;28;20478;-60
2022/11/18 09:57:26;;;;;;;1.50;1.40;;;9.20;99.90;;;;;;5014933;28;20556;-57
2022/11/18 09:59:53;;;;;;;2.30;1.43;;;9.30;99.90;;;;;;5022680;28;20494;-57
2022/11/18 10:02:45;;;;;;;1.40;1.30;;;9.30;99.90;;;;;;5034666;28;20496;-58
2022/11/18 10:05:18;;;;;;;1.43;1.33;;;9.40;99.90;;;;;;5035345;28;20510;-59
2022/11/18 10:07:54;;;;;;;1.90;1.27;;;9.50;99.90;;;;;;5034382;28;20966;-59
2022/11/18 10:10:30;;;;;;;1.50;1.40;;;9.50;99.90;;;;;;5034651;28;20501;-58
2022/11/18 10:13:02;;;;;;;1.50;1.40;;;9.60;99.90;;;;;;5034366;28;20430;-58
2022/11/18 10:15:36;;;;;;;1.63;1.40;;;9.60;99.90;;;;;;5034272;28;20512;-58
2022/11/18 10:18:18;;;;;;;1.73;1.63;;;9.70;99.90;;;;;;5034131;28;20470;-58
2022/11/18 10:20:54;;;;;;;4.80;1.73;;;9.60;99.90;;;;;;5034213;28;20481;-58
2022/11/18 10:23:28;;;;;;;1.60;1.40;;;9.50;99.90;;;;;;5034583;28;20505;-59
2022/11/18 10:25:57;;;;;;;1.93;1.57;;;9.60;99.90;;;;;;5034285;28;20801;-59
2022/11/18 10:28:28;;;;;;;1.50;1.40;;;9.80;99.90;;;;;;5034210;28;20478;-58
2022/11/18 10:31:05;;;;;;;1.90;1.67;;;9.80;99.90;;;;;;5001684;28;20450;-58
2022/11/18 10:33:32;;;;;;;2.23;1.60;;;9.90;99.90;;;;;;4994809;28;20436;-58
2022/11/18 10:36:12;;;;;;;1.93;1.70;;;9.90;99.90;;;;;;4994181;28;20888;-59
2022/11/18 10:38:40;;;;;;;1.80;1.70;;;10.00;99.90;;;;;;4994665;28;20814;-59
2022/11/18 10:41:14;;;;;;;3.40;1.57;;;10.10;99.90;;;;;;4994419;28;20863;-58
2022/11/18 10:43:48;;;;;;;1.63;1.53;;;10.10;99.90;;;;;;4994783;28;20494;-58
2022/11/18 10:46:25;;;;;;;1.90;1.60;;;10.20;99.90;;;;;;4994535;28;20475;-58
2022/11/18 10:49:15;;;;;;;1.60;1.50;;;10.60;99.90;;;;;;4994631;28;20451;-58
2022/11/18 10:51:44;;;;;;;1.93;1.73;;;10.70;99.90;;;;;;4994686;28;20432;-58
2022/11/18 10:54:16;;;;;;;1.60;1.50;;;10.70;99.90;;;;;;4994349;28;20540;-58
2022/11/18 10:56:52;;;;;;;1.97;1.50;;;10.70;99.90;;;;;;4994199;28;20547;-58
2022/11/18 10:59:30;;;;;;;1.90;1.80;;;10.50;99.90;;;;;;4997218;28;20502;-59
2022/11/18 11:01:59;;;;;;;2.00;1.80;;;10.30;99.90;;;;;;5013752;28;20435;-60
2022/11/18 11:04:27;;;;;;;1.80;1.70;;;10.10;99.90;;;;;;5013618;28;20463;-59
2022/11/18 11:06:57;;;;;;;1.80;1.70;;;10.00;99.90;;;;;;5013637;28;20455;-58
2022/11/18 11:09:28;;;;;;;2.70;2.10;;;10.10;99.90;;;;;;5013369;28;20494;-58
2022/11/18 11:12:11;;;;;;;2.40;2.20;;;10.00;99.90;;;;;;5013567;28;20465;-59
2022/11/18 11:14:50;;;;;;;2.73;2.53;;;10.00;99.90;;;;;;5013538;28;20485;-59
2022/11/18 11:17:21;;;;;;;2.30;2.10;;;9.80;99.90;;;;;;5013459;28;20432;-59
2022/11/18 11:19:52;;;;;;;3.77;1.97;;;9.80;99.90;;;;;;5013810;28;20450;-59
2022/11/18 11:22:19;;;;;;;3.00;2.17;;;9.80;99.90;;;;;;5013914;28;20431;-58
2022/11/18 11:24:47;;;;;;;2.27;2.07;;;9.80;99.90;;;;;;5013756;28;20502;-58
2022/11/18 11:27:35;;;;;;;2.77;1.90;;;9.80;99.90;;;;;;5014008;28;20491;-58
2022/11/18 11:30:16;;;;;;;2.17;1.97;;;9.80;99.90;;;;;;5026618;28;20478;-59
2022/11/18 11:33:19;;;;;;;1.90;1.80;;;9.90;99.90;;;;;;5037416;28;20441;-58
2022/11/18 11:36:00;;;;;;;4.30;1.77;;;10.00;99.90;;;;;;5037575;28;20477;-59
2022/11/18 11:38:37;;;;;;;2.20;2.00;;;10.10;99.90;;;;;;5037494;28;20498;-58
2022/11/18 11:41:15;;;;;;;1.90;1.70;;;10.80;99.90;;;;;;5037230;28;20465;-58
2022/11/18 11:44:05;;;;;;;2.00;1.80;;;11.30;99.90;;;;;;5037059;28;20442;-59
2022/11/18 11:46:40;;;;;;;2.17;1.60;;;11.30;99.90;;;;;;5037068;28;20466;-58
2022/11/18 11:49:17;;;;;;;1.80;1.70;;;11.30;99.90;;;;;;5037003;28;20430;-59
2022/11/18 11:51:54;;;;;;;4.43;2.23;;;11.00;99.90;;;;;;5037111;28;20500;-59
2022/11/18 11:54:38;;;;;;;1.80;1.70;;;10.90;99.90;;;;;;5036573;28;20426;-59
2022/11/18 11:57:13;;;;;;;1.80;1.70;;;10.70;99.90;;;;;;5036576;28;20462;-59
2022/11/18 11:59:48;;;;;;;4.73;1.53;;;10.80;99.90;;;;;;5036610;28;20579;-59
2022/11/18 12:02:40;;;;;;;3.10;1.70;;;10.70;99.90;;;;;;5037034;28;20487;-59
2022/11/18 12:05:18;;;;;;;4.23;1.73;;;10.70;99.90;;;;;;5030674;28;21004;-59
2022/11/18 12:07:49;;;;;;;1.77;1.57;;;10.60;99.90;;;;;;5036708;28;20430;-59
2022/11/18 12:10:38;;;;;;;1.87;1.70;;;10.60;99.90;;;;;;5036999;28;20851;-58
2022/11/18 12:13:21;;;;;;;2.23;1.50;;;10.90;99.90;;;;;;5030915;28;20968;-59
2022/11/18 12:16:01;;;;;;;2.50;1.80;;;10.70;99.90;;;;;;5036339;28;20976;-59
2022/11/18 12:18:36;;;;;;;2.70;1.60;;;10.50;99.90;;;;;;5036192;28;20520;-58
2022/11/18 12:21:04;;;;;;;2.43;1.90;;;10.40;99.90;;;;;;5037096;28;20445;-58
2022/11/18 12:23:32;;;;;;;1.83;1.73;;;10.10;99.90;;;;;;5036627;28;20537;-58
2022/11/18 12:26:02;;;;;;;2.17;1.60;;;10.00;99.90;;;;;;5036102;28;20894;-59
2022/11/18 12:28:32;;;;;;;2.53;1.63;;;10.00;99.90;;;;;;5036276;28;20492;-58
2022/11/18 12:31:33;;;;;;;2.37;1.93;;;9.80;99.90;;;;;;5036195;28;20488;-59
2022/11/18 12:34:04;;;;;;;3.10;1.90;;;9.80;99.90;;;;;;5035962;28;20434;-59
2022/11/18 12:36:33;;;;;;;3.67;1.80;;;9.70;99.90;;;;;;5036141;28;20493;-59
2022/11/18 12:39:33;;;;;;;1.67;1.50;;;9.60;99.90;;;;;;5034117;28;20604;-59
2022/11/18 12:45:36;;;;;;;2.40;1.60;;;9.40;99.90;;;;;;4994186;28;20484;-59
2022/11/18 12:48:25;;;;;;;2.27;2.00;;;9.50;99.90;;;;;;5034113;28;20472;-59
2022/11/18 12:50:54;;;;;;;1.90;1.77;;;9.40;99.90;;;;;;5035128;28;20437;-59
2022/11/18 12:53:37;;;;;;;1.97;1.70;;;9.40;99.90;;;;;;5014001;28;20458;-59
2022/11/18 12:56:21;;;;;;;1.70;1.60;;;9.40;99.90;;;;;;5010107;28;20897;-59
2022/11/18 12:58:50;;;;;;;5.03;2.40;;;9.50;99.90;;;;;;5012041;28;20475;-59
2022/11/18 13:01:19;;;;;;;2.70;2.50;;;9.60;99.90;;;;;;5012050;28;21040;-58
2022/11/18 13:03:48;;;;;;;4.50;2.67;;;9.70;99.90;;;;;;5012202;28;20490;-59
2022/11/18 13:06:24;;;;;;;2.17;1.97;;;9.80;99.90;;;;;;5001459;28;20479;-55
2022/11/18 13:08:58;;;;;;;3.10;2.20;;;10.00;99.90;;;;;;5009394;28;20597;-58
2022/11/18 13:11:45;;;;;;;2.13;1.83;;;10.10;99.90;;;;;;5009144;28;20455;-52
2022/11/18 13:19:58;;;;;;;4.00;1.90;;;10.60;99.90;;;;;;5008328;28;21054;-56
2022/11/18 13:25:24;;;;;;;5.93;2.07;;;11.20;99.90;;;;;;5007545;28;20478;-53
2022/11/18 13:27:58;;;;;;;4.30;1.97;;;11.50;99.90;;;;;;5008614;28;20926;-57
2022/11/18 13:30:26;;;;;;;3.63;2.00;;;11.30;99.90;;;;;;5008706;28;20823;-55
2022/11/18 13:32:57;;;;;;;5.37;2.30;;;11.10;99.90;;;;;;5010172;28;20463;-56
2022/11/18 13:35:28;;;;;;;2.67;2.00;;;10.80;99.90;;;;;;5010002;28;20475;-56
2022/11/18 13:37:57;;;;;;;5.67;2.20;;;10.60;99.90;;;;;;5007693;28;21019;-58
2022/11/18 13:40:26;;;;;;;4.30;2.10;;;10.40;99.90;;;;;;5012325;28;20821;-59
2022/11/18 13:42:53;;;;;;;2.50;2.30;;;10.40;99.90;;;;;;5012933;28;21174;-58
2022/11/18 13:45:23;;;;;;;4.33;2.20;;;10.40;99.90;;;;;;5010046;28;20492;-57
2022/11/18 13:47:55;;;;;;;3.00;2.10;;;10.30;99.90;;;;;;5009827;28;20455;-56